Airmont, New York
Current Conditions -  °F | °C
As of 12:51 PM on Saturday 20 Dec 2014 (Local Time) from KTEB Reporting Station
Overcast Overcast  
Wind Chill: 26°   Ceiling: 3200
Heat Index: 32°   Visibility: 10mi
Dew Point: 19°   Wind: 6mph
Humidity: 59%   Direction: 320°NW
Pressure: 30.26"   Gusts: NA
Location:  41.1112°N, 74.0777°W
Report Text: KTEB 201751Z 32005KT 10SM OVC032 00/M07 A3026 RMK AO2 UPB17E21 SLP247 P0000 60000 T00001072 10000 21006 58017
Loading
Personal Weather Stations






























Interactive Weather Map New forecast layout! Learn more

10-Day Weather Forecast

Advertisements
Track Severe Weather on mobile